createdAt,value
2023-01-09T00:04:19.489Z,5.45
2023-01-09T00:09:22.919Z,5.72
2023-01-09T00:14:24.700Z,5.47
2023-01-09T00:19:26.426Z,5.70
2023-01-09T00:24:28.102Z,4.90
2023-01-09T00:29:29.866Z,5.82
2023-01-09T00:34:31.626Z,5.10
2023-01-09T00:39:33.281Z,5.55
2023-01-09T00:44:46.056Z,4.97
2023-01-09T00:49:49.716Z,5.60
2023-01-09T00:54:51.540Z,5.20
2023-01-09T00:59:53.320Z,5.57
2023-01-09T01:05:13.532Z,5.18
2023-01-09T01:10:21.466Z,5.32
2023-01-09T01:15:23.285Z,5.38
2023-01-09T01:20:25.410Z,5.78
2023-01-09T01:25:28.282Z,6.10
2023-01-09T01:30:31.387Z,6.28
2023-01-09T01:35:33.234Z,8.32
2023-01-09T01:40:34.894Z,5.60
2023-01-09T01:45:36.597Z,5.68
2023-01-09T01:50:49.287Z,4.97
2023-01-09T01:55:51.001Z,4.50
2023-01-09T02:00:52.768Z,4.53
2023-01-09T02:05:55.007Z,4.75
2023-01-09T02:10:57.006Z,4.40
2023-01-09T02:16:17.996Z,4.32
2023-01-09T02:21:28.032Z,5.13
2023-01-09T02:26:35.525Z,4.13
2023-01-09T02:31:46.112Z,3.92
2023-01-09T02:37:09.005Z,3.83
2023-01-09T02:42:21.544Z,3.50
2023-01-09T02:47:23.644Z,3.80
2023-01-09T02:52:50.306Z,3.42
2023-01-09T02:58:06.835Z,3.50
2023-01-09T03:03:18.413Z,3.38
2023-01-09T03:08:28.252Z,3.45
2023-01-09T03:13:33.893Z,3.35
2023-01-09T03:18:37.511Z,3.45
2023-01-09T03:23:57.185Z,3.58
2023-01-09T03:28:59.479Z,3.33
2023-01-09T03:34:01.266Z,3.85
2023-01-09T03:39:03.114Z,3.53
2023-01-09T03:44:04.808Z,3.35
2023-01-09T03:49:07.030Z,3.15
2023-01-09T03:54:08.790Z,3.15
2023-01-09T03:59:10.515Z,3.10
2023-01-09T04:04:12.417Z,3.05
2023-01-09T04:09:14.552Z,3.47
2023-01-09T04:14:16.703Z,3.20
2023-01-09T04:19:18.499Z,6.47
2023-01-09T04:24:20.549Z,3.45
2023-01-09T04:29:22.261Z,3.10
2023-01-09T04:34:25.669Z,3.60
2023-01-09T04:39:27.748Z,2.63
2023-01-09T04:44:30.423Z,2.83
2023-01-09T04:49:32.151Z,3.50
2023-01-09T04:54:34.722Z,2.83
2023-01-09T04:59:37.589Z,2.88
2023-01-09T05:04:40.626Z,5.18
2023-01-09T05:09:43.556Z,3.47
2023-01-09T05:14:45.270Z,3.03
2023-01-09T05:19:46.979Z,3.08
2023-01-09T05:24:48.708Z,3.13
2023-01-09T05:29:53.463Z,3.72
2023-01-09T05:34:55.710Z,3.85
2023-01-09T05:39:57.415Z,3.53
2023-01-09T05:44:59.118Z,3.13
2023-01-09T05:50:03.449Z,3.22
2023-01-09T05:55:06.583Z,5.35
2023-01-09T06:00:09.213Z,3.55
2023-01-09T06:05:10.919Z,3.00
2023-01-09T06:10:13.758Z,3.47
2023-01-09T06:15:15.881Z,3.65
2023-01-09T06:20:17.970Z,3.75
2023-01-09T06:25:19.654Z,3.53
2023-01-09T06:30:21.979Z,3.13
2023-01-09T06:35:23.813Z,3.35
2023-01-09T06:40:25.650Z,2.97
2023-01-09T06:45:27.457Z,3.40
2023-01-09T06:50:29.162Z,3.83
2023-01-09T06:55:30.949Z,3.60
2023-01-09T07:00:32.730Z,4.15
2023-01-09T07:05:40.428Z,3.88
2023-01-09T07:10:43.284Z,3.50
2023-01-09T07:15:45.100Z,3.67
2023-01-09T07:20:47.161Z,3.17
2023-01-09T07:25:51.166Z,3.40
2023-01-09T07:30:53.298Z,3.42
2023-01-09T07:35:54.993Z,3.10
2023-01-09T07:40:56.792Z,3.22
2023-01-09T07:45:58.494Z,3.45
2023-01-09T07:51:00.269Z,3.08
2023-01-09T07:56:02.028Z,3.00
2023-01-09T08:01:03.880Z,2.85
2023-01-09T08:06:05.797Z,2.83
2023-01-09T08:11:07.524Z,2.38
2023-01-09T08:16:09.361Z,2.00
2023-01-09T08:21:11.420Z,1.42
2023-01-09T08:26:13.406Z,1.73
2023-01-09T08:31:15.540Z,1.48
2023-01-09T08:36:17.288Z,1.13
2023-01-09T08:41:37.894Z,1.08
2023-01-09T08:47:18.311Z,1.10
2023-01-09T08:52:20.146Z,1.00
2023-01-09T08:57:21.945Z,1.20
2023-01-09T09:02:23.751Z,0.98
2023-01-09T09:07:28.518Z,0.88
2023-01-09T09:12:50.204Z,1.20
2023-01-09T09:17:54.593Z,0.77
2023-01-09T09:22:56.346Z,1.00
2023-01-09T09:27:58.396Z,0.65
2023-01-09T09:33:02.301Z,0.80
2023-01-09T09:38:05.915Z,0.95
2023-01-09T09:43:38.592Z,0.73
2023-01-09T09:48:47.995Z,0.60
2023-01-09T09:54:23.881Z,0.50
2023-01-09T09:59:29.516Z,0.60
2023-01-09T10:04:33.667Z,0.55
2023-01-09T10:09:45.656Z,0.70
2023-01-09T10:14:47.650Z,0.63
2023-01-09T10:20:11.692Z,0.52
2023-01-09T10:25:50.987Z,0.85
2023-01-09T10:31:16.025Z,0.55
2023-01-09T10:36:42.903Z,0.50
2023-01-09T10:42:22.857Z,0.45
2023-01-09T10:47:29.891Z,0.63
2023-01-09T10:52:41.068Z,0.40
2023-01-09T10:57:45.239Z,0.40
2023-01-09T11:02:47.756Z,0.63
2023-01-09T11:08:11.433Z,0.45
2023-01-09T11:13:23.490Z,0.70
2023-01-09T11:18:25.771Z,0.60
2023-01-09T11:23:32.864Z,0.40
2023-01-09T11:28:34.634Z,0.52
2023-01-09T11:33:49.853Z,0.40
2023-01-09T11:38:53.686Z,0.43
2023-01-09T11:43:58.510Z,0.52
2023-01-09T11:49:02.234Z,0.85
2023-01-09T11:54:22.732Z,0.80
2023-01-09T11:59:30.448Z,0.63
2023-01-09T12:04:49.902Z,0.50
2023-01-09T12:09:55.026Z,0.68
2023-01-09T12:15:15.875Z,0.50
2023-01-09T12:20:36.113Z,0.70
2023-01-09T12:25:53.839Z,0.50
2023-01-09T12:31:16.833Z,0.50
2023-01-09T12:36:21.643Z,0.68
2023-01-09T12:41:42.842Z,0.73
2023-01-09T12:47:18.531Z,0.60
2023-01-09T12:52:36.265Z,0.80
2023-01-09T12:57:42.807Z,0.70
2023-01-09T13:03:12.855Z,0.50
2023-01-09T13:08:40.508Z,0.50
2023-01-09T13:13:57.818Z,0.45
2023-01-09T13:19:08.704Z,0.50
2023-01-09T13:24:53.708Z,0.30
2023-01-09T13:30:15.371Z,0.40
2023-01-09T13:35:17.161Z,0.40
2023-01-09T13:40:18.842Z,0.43
2023-01-09T13:45:25.739Z,0.50
2023-01-09T13:50:27.792Z,0.50
2023-01-09T13:55:35.750Z,0.45
2023-01-09T14:00:38.085Z,0.43
2023-01-09T14:05:39.793Z,0.50
2023-01-09T14:10:44.380Z,0.70
2023-01-09T14:15:49.599Z,0.55
2023-01-09T14:26:23.261Z,0.80
2023-01-09T14:31:32.880Z,0.50
2023-01-09T14:36:36.438Z,1.35
2023-01-09T14:42:05.744Z,0.77
2023-01-09T14:47:32.430Z,1.00
2023-01-09T14:53:08.274Z,0.75
2023-01-09T14:58:31.284Z,1.00
2023-01-09T15:03:52.434Z,0.40
2023-01-09T15:09:08.896Z,0.50
2023-01-09T15:14:26.515Z,0.60
2023-01-09T15:19:30.270Z,1.17
2023-01-09T15:24:34.438Z,0.95
2023-01-09T15:29:36.367Z,0.95
2023-01-09T15:34:39.418Z,1.10
2023-01-09T15:39:41.211Z,0.85
2023-01-09T15:44:49.668Z,1.13
2023-01-09T15:49:52.256Z,0.95
2023-01-09T15:54:54.397Z,1.10
2023-01-09T16:00:17.595Z,0.93
2023-01-09T16:05:20.152Z,0.80
2023-01-09T16:10:32.459Z,1.17
2023-01-09T16:15:35.122Z,0.95
2023-01-09T16:20:37.918Z,0.90
2023-01-09T16:25:39.679Z,0.70
2023-01-09T16:30:56.306Z,1.05
2023-01-09T16:35:59.128Z,0.85
2023-01-09T16:41:22.345Z,0.90
2023-01-09T16:46:24.319Z,1.77
2023-01-09T16:51:28.281Z,0.90
2023-01-09T16:56:30.681Z,1.33
2023-01-09T17:01:32.435Z,1.10
2023-01-09T17:06:34.220Z,1.02
2023-01-09T17:11:35.945Z,0.93
2023-01-09T17:16:37.776Z,1.05
2023-01-09T17:21:39.483Z,1.20
2023-01-09T17:27:02.355Z,1.20
2023-01-09T17:32:04.485Z,1.40
2023-01-09T17:37:06.359Z,1.70
2023-01-09T17:42:08.295Z,1.88
2023-01-09T17:47:16.525Z,4.32
2023-01-09T17:52:18.278Z,3.00
2023-01-09T17:57:20.716Z,2.40
2023-01-09T18:02:22.620Z,2.22
2023-01-09T18:07:24.376Z,1.67
2023-01-09T18:12:26.053Z,1.67
2023-01-09T18:17:27.783Z,1.92
2023-01-09T18:22:29.454Z,1.85
2023-01-09T18:27:31.278Z,1.60
2023-01-09T18:32:33.322Z,2.10
2023-01-09T18:37:36.868Z,1.85
2023-01-09T18:42:40.280Z,2.20
2023-01-09T18:47:43.145Z,2.30
2023-01-09T18:52:44.816Z,2.08
2023-01-09T18:57:46.515Z,1.95
2023-01-09T19:02:48.264Z,1.38
2023-01-09T19:07:50.138Z,1.92
2023-01-09T19:12:51.815Z,1.83
2023-01-09T19:17:53.479Z,2.15
2023-01-09T19:22:56.688Z,2.25
2023-01-09T19:28:00.279Z,2.33
2023-01-09T19:33:02.376Z,2.30
2023-01-09T19:38:04.425Z,2.42
2023-01-09T19:43:06.164Z,2.35
2023-01-09T19:48:07.850Z,2.22
2023-01-09T19:53:09.558Z,2.15
2023-01-09T19:58:11.248Z,2.58
2023-01-09T20:03:12.932Z,2.40
2023-01-09T20:08:17.240Z,2.13
2023-01-09T20:13:18.917Z,2.00
2023-01-09T20:18:21.475Z,1.98
2023-01-09T20:23:27.324Z,2.10
2023-01-09T20:28:29.069Z,2.20
2023-01-09T20:33:30.749Z,2.00
2023-01-09T20:38:33.391Z,1.55
2023-01-09T20:43:36.024Z,1.60
2023-01-09T20:48:37.862Z,1.13
2023-01-09T20:53:44.734Z,1.33
2023-01-09T20:58:46.561Z,1.10
2023-01-09T21:03:49.480Z,1.23
2023-01-09T21:08:53.089Z,1.23
2023-01-09T21:13:54.932Z,1.20
2023-01-09T21:18:56.718Z,1.27
2023-01-09T21:24:00.881Z,0.98
2023-01-09T21:29:08.148Z,1.05
2023-01-09T21:34:14.754Z,1.30
2023-01-09T21:39:17.956Z,1.40
2023-01-09T21:44:38.227Z,1.13
2023-01-09T21:49:42.670Z,1.65
2023-01-09T21:54:45.379Z,1.67
2023-01-09T21:59:48.113Z,1.63
2023-01-09T22:04:49.938Z,1.38
2023-01-09T22:09:51.710Z,1.60
2023-01-09T22:14:56.142Z,1.25
2023-01-09T22:19:57.999Z,1.80
2023-01-09T22:25:01.270Z,1.75
2023-01-09T22:30:03.141Z,1.70
2023-01-09T22:35:05.860Z,1.70
2023-01-09T22:40:12.730Z,1.80
2023-01-09T22:45:14.508Z,1.90
2023-01-09T22:50:17.369Z,2.20
2023-01-09T22:55:19.174Z,2.17
2023-01-09T23:00:21.107Z,1.85
2023-01-09T23:05:22.837Z,2.00
2023-01-09T23:10:24.636Z,2.38
2023-01-09T23:15:27.981Z,1.88
2023-01-09T23:20:31.052Z,2.45
2023-01-09T23:25:33.119Z,2.22
2023-01-09T23:30:35.084Z,2.50
2023-01-09T23:35:36.778Z,2.53
2023-01-09T23:40:41.576Z,2.80
2023-01-09T23:45:49.171Z,2.58
2023-01-09T23:50:53.573Z,2.63
2023-01-09T23:55:55.406Z,2.53
